createdAt,value
2023-05-22T00:00:22.634Z,17.30
2023-05-22T00:02:50.903Z,17.20
2023-05-22T00:05:21.116Z,17.20
2023-05-22T00:07:52.548Z,17.20
2023-05-22T00:10:20.977Z,17.20
2023-05-22T00:12:50.453Z,17.10
2023-05-22T00:15:19.457Z,17.00
2023-05-22T00:17:50.246Z,17.00
2023-05-22T00:20:20.964Z,17.00
2023-05-22T00:22:50.400Z,17.00
2023-05-22T00:25:20.622Z,16.90
2023-05-22T00:27:50.962Z,16.90
2023-05-22T00:30:19.462Z,16.80
2023-05-22T00:32:49.073Z,16.90
2023-05-22T00:35:19.111Z,16.90
2023-05-22T00:37:50.747Z,16.80
2023-05-22T00:40:20.012Z,16.80
2023-05-22T00:42:48.205Z,16.80
2023-05-22T00:45:17.976Z,16.80
2023-05-22T00:47:46.456Z,16.80
2023-05-22T00:50:14.777Z,16.70
2023-05-22T00:52:44.394Z,16.70
2023-05-22T00:55:13.612Z,16.70
2023-05-22T00:57:42.711Z,16.70
2023-05-22T01:00:11.984Z,16.60
2023-05-22T01:02:43.402Z,16.60
2023-05-22T01:05:18.506Z,16.60
2023-05-22T01:07:46.814Z,16.60
2023-05-22T01:10:14.986Z,16.60
2023-05-22T01:12:53.586Z,16.60
2023-05-22T01:15:30.719Z,16.60
2023-05-22T01:18:11.284Z,16.50
2023-05-22T01:20:46.587Z,16.40
2023-05-22T01:23:42.204Z,16.50
2023-05-22T01:26:52.600Z,16.40
2023-05-22T01:29:47.253Z,16.40
2023-05-22T01:32:22.056Z,16.50
2023-05-22T01:34:55.563Z,16.50
2023-05-22T01:37:25.670Z,16.50
2023-05-22T01:39:54.592Z,16.50
2023-05-22T01:42:23.199Z,16.50
2023-05-22T01:44:53.259Z,16.40
2023-05-22T01:47:23.374Z,16.40
2023-05-22T01:49:53.162Z,16.30
2023-05-22T01:52:34.470Z,16.20
2023-05-22T01:55:17.796Z,16.20
2023-05-22T01:57:54.032Z,16.10
2023-05-22T02:00:23.354Z,16.10
2023-05-22T02:02:58.328Z,16.10
2023-05-22T02:05:30.778Z,16.10
2023-05-22T02:08:02.124Z,16.00
2023-05-22T02:10:32.505Z,15.90
2023-05-22T02:13:00.906Z,15.90
2023-05-22T02:15:28.954Z,15.90
2023-05-22T02:18:02.116Z,15.90
2023-05-22T02:20:32.037Z,15.90
2023-05-22T02:22:59.800Z,15.80
2023-05-22T02:25:29.525Z,15.80
2023-05-22T02:27:57.746Z,15.80
2023-05-22T02:30:25.540Z,15.80
2023-05-22T02:32:54.989Z,15.70
2023-05-22T02:35:24.743Z,15.70
2023-05-22T02:37:54.417Z,15.70
2023-05-22T02:40:23.582Z,15.70
2023-05-22T02:42:52.160Z,15.60
2023-05-22T02:45:23.978Z,15.60
2023-05-22T02:47:52.470Z,15.60
2023-05-22T02:50:20.326Z,15.50
2023-05-22T02:52:52.507Z,15.50
2023-05-22T02:55:21.585Z,15.50
2023-05-22T02:57:50.169Z,15.50
2023-05-22T03:00:19.788Z,15.50
2023-05-22T03:02:48.811Z,15.40
2023-05-22T03:05:17.867Z,15.40
2023-05-22T03:07:48.583Z,15.40
2023-05-22T03:10:18.701Z,15.40
2023-05-22T03:12:47.164Z,15.30
2023-05-22T03:15:16.171Z,15.30
2023-05-22T03:17:46.595Z,15.30
2023-05-22T03:20:17.960Z,15.30
2023-05-22T03:22:46.377Z,15.30
2023-05-22T03:25:14.295Z,15.30
2023-05-22T03:27:43.775Z,15.30
2023-05-22T03:30:14.788Z,15.20
2023-05-22T03:32:46.571Z,15.20
2023-05-22T03:35:20.005Z,15.20
2023-05-22T03:37:48.338Z,15.20
2023-05-22T03:40:17.332Z,15.20
2023-05-22T03:42:49.364Z,15.30
2023-05-22T03:45:18.165Z,15.30
2023-05-22T03:47:47.064Z,15.30
2023-05-22T03:50:15.445Z,15.30
2023-05-22T03:52:44.004Z,15.40
2023-05-22T03:55:12.084Z,15.40
2023-05-22T03:57:43.556Z,15.40
2023-05-22T04:00:17.286Z,15.50
2023-05-22T04:02:47.111Z,15.50
2023-05-22T04:05:15.178Z,15.50
2023-05-22T04:07:44.769Z,15.50
2023-05-22T04:10:13.261Z,15.60
2023-05-22T04:12:41.504Z,15.60
2023-05-22T04:15:13.736Z,15.60
2023-05-22T04:17:43.558Z,15.70
2023-05-22T04:20:12.136Z,15.70
2023-05-22T04:22:41.147Z,15.80
2023-05-22T04:25:10.803Z,15.80
2023-05-22T04:27:39.711Z,15.90
2023-05-22T04:30:10.564Z,15.90
2023-05-22T04:32:40.882Z,16.00
2023-05-22T04:35:10.309Z,16.00
2023-05-22T04:37:41.200Z,16.00
2023-05-22T04:40:12.046Z,16.10
2023-05-22T04:42:40.524Z,16.10
2023-05-22T04:45:11.396Z,16.20
2023-05-22T04:47:42.760Z,16.20
2023-05-22T04:50:16.184Z,16.30
2023-05-22T04:52:47.334Z,16.30
2023-05-22T04:55:15.962Z,16.40
2023-05-22T04:57:45.925Z,16.50
2023-05-22T05:00:17.030Z,16.50
2023-05-22T05:02:47.571Z,16.60
2023-05-22T05:05:20.826Z,16.70
2023-05-22T05:07:51.879Z,16.70
2023-05-22T05:10:23.987Z,16.70
2023-05-22T05:12:55.189Z,16.80
2023-05-22T05:15:27.403Z,16.90
2023-05-22T05:18:00.997Z,17.00
2023-05-22T05:20:31.904Z,17.00
2023-05-22T05:23:00.124Z,17.00
2023-05-22T05:25:28.734Z,17.20
2023-05-22T05:27:58.180Z,17.20
2023-05-22T05:33:19.735Z,17.30
2023-05-22T05:35:50.687Z,17.40
2023-05-22T05:38:18.739Z,17.50
2023-05-22T05:40:47.738Z,17.60
2023-05-22T05:43:17.145Z,17.60
2023-05-22T05:45:47.786Z,17.70
2023-05-22T05:48:18.068Z,17.90
2023-05-22T05:50:45.937Z,18.00
2023-05-22T05:53:14.022Z,18.10
2023-05-22T05:55:43.904Z,18.20
2023-05-22T05:58:13.040Z,18.30
2023-05-22T06:00:42.452Z,18.40
2023-05-22T06:03:10.800Z,18.40
2023-05-22T06:05:40.080Z,18.50
2023-05-22T06:08:08.634Z,18.50
2023-05-22T06:10:36.515Z,18.50
2023-05-22T06:13:04.737Z,18.60
2023-05-22T06:15:34.749Z,18.60
2023-05-22T06:18:03.608Z,18.70
2023-05-22T06:20:36.409Z,18.80
2023-05-22T06:23:11.279Z,19.00
2023-05-22T06:25:40.055Z,19.00
2023-05-22T06:28:07.938Z,19.20
2023-05-22T06:30:40.009Z,19.30
2023-05-22T06:33:09.350Z,19.40
2023-05-22T06:35:38.316Z,19.50
2023-05-22T06:38:07.713Z,19.60
2023-05-22T06:40:35.734Z,19.70
2023-05-22T06:43:04.025Z,19.90
2023-05-22T06:45:32.566Z,20.00
2023-05-22T06:48:00.625Z,20.10
2023-05-22T06:50:28.571Z,20.30
2023-05-22T06:52:56.618Z,20.50
2023-05-22T06:55:26.580Z,20.60
2023-05-22T06:57:54.935Z,20.70
2023-05-22T07:00:23.295Z,20.80
2023-05-22T07:02:51.694Z,20.90
2023-05-22T07:05:20.007Z,21.00
2023-05-22T07:07:47.859Z,21.00
2023-05-22T07:10:15.947Z,21.10
2023-05-22T07:12:45.242Z,21.20
2023-05-22T07:15:14.983Z,21.40
2023-05-22T07:17:43.394Z,21.50
2023-05-22T07:20:12.311Z,21.60
2023-05-22T07:22:40.395Z,21.70
2023-05-22T07:25:08.755Z,21.70
2023-05-22T07:27:36.837Z,21.60
2023-05-22T07:30:07.599Z,21.70
2023-05-22T07:32:41.050Z,21.80
2023-05-22T07:35:10.801Z,21.90
2023-05-22T07:37:39.423Z,21.90
2023-05-22T07:40:09.694Z,22.10
2023-05-22T07:42:38.655Z,22.10
2023-05-22T07:45:08.898Z,22.10
2023-05-22T07:47:37.313Z,22.10
2023-05-22T07:50:05.817Z,22.10
2023-05-22T07:52:33.909Z,22.10
2023-05-22T07:55:04.309Z,22.20
2023-05-22T07:57:32.896Z,22.30
2023-05-22T08:00:00.743Z,22.40
2023-05-22T08:02:30.280Z,22.60
2023-05-22T08:04:58.227Z,22.90
2023-05-22T08:07:26.080Z,23.30
2023-05-22T08:09:53.906Z,23.70
2023-05-22T08:12:21.680Z,24.10
2023-05-22T08:14:49.695Z,24.40
2023-05-22T08:17:37.940Z,24.70
2023-05-22T08:20:23.610Z,24.80
2023-05-22T08:22:53.289Z,25.20
2023-05-22T08:25:21.756Z,25.20
2023-05-22T08:27:49.854Z,25.50
2023-05-22T08:30:17.919Z,25.30
2023-05-22T08:32:46.063Z,25.30
2023-05-22T08:35:15.728Z,25.20
2023-05-22T08:37:43.863Z,25.40
2023-05-22T08:40:13.845Z,25.50
2023-05-22T08:42:43.258Z,25.70
2023-05-22T08:45:13.106Z,26.10
2023-05-22T08:47:44.237Z,26.30
2023-05-22T08:50:13.287Z,26.60
2023-05-22T08:52:49.352Z,26.80
2023-05-22T08:55:20.032Z,27.10
2023-05-22T08:57:48.307Z,27.00
2023-05-22T09:00:17.571Z,26.70
2023-05-22T09:02:46.408Z,26.50
2023-05-22T09:05:14.728Z,26.50
2023-05-22T09:07:44.198Z,26.30
2023-05-22T09:10:12.538Z,26.10
2023-05-22T09:13:00.312Z,25.90
2023-05-22T09:15:31.263Z,25.80
2023-05-22T09:17:59.131Z,25.90
2023-05-22T09:20:29.778Z,25.90
2023-05-22T09:22:58.958Z,25.90
2023-05-22T09:25:28.327Z,26.00
2023-05-22T09:27:59.938Z,26.40
2023-05-22T09:30:27.798Z,26.60
2023-05-22T09:32:59.552Z,26.80
2023-05-22T09:35:31.147Z,26.70
2023-05-22T09:38:00.612Z,26.90
2023-05-22T09:40:29.814Z,26.60
2023-05-22T09:42:57.540Z,26.70
2023-05-22T09:45:26.480Z,26.60
2023-05-22T09:47:54.685Z,26.90
2023-05-22T09:50:25.102Z,27.10
2023-05-22T09:52:54.145Z,27.40
2023-05-22T09:55:24.985Z,27.30
2023-05-22T09:57:55.271Z,27.00
2023-05-22T10:00:24.087Z,26.70
2023-05-22T10:02:57.334Z,26.60
2023-05-22T10:05:29.484Z,26.70
2023-05-22T10:07:58.687Z,26.50
2023-05-22T10:10:30.140Z,26.40
2023-05-22T10:13:01.262Z,26.60
2023-05-22T10:15:29.567Z,26.50
2023-05-22T10:17:59.287Z,26.30
2023-05-22T10:20:29.115Z,26.30
2023-05-22T10:22:58.038Z,26.10
2023-05-22T10:25:27.719Z,26.20
2023-05-22T10:27:56.962Z,26.40
2023-05-22T10:30:30.632Z,26.90
2023-05-22T10:33:04.739Z,27.30
2023-05-22T10:35:40.801Z,27.70
2023-05-22T10:38:26.916Z,27.70
2023-05-22T10:40:56.843Z,27.90
2023-05-22T10:43:25.895Z,28.00
2023-05-22T10:46:09.782Z,28.00
2023-05-22T10:48:42.222Z,28.10
2023-05-22T10:51:13.239Z,28.20
2023-05-22T10:53:46.352Z,28.50
2023-05-22T10:56:20.640Z,28.40
2023-05-22T10:58:58.151Z,28.70
2023-05-22T11:01:35.115Z,28.80
2023-05-22T11:04:13.011Z,29.30
2023-05-22T11:06:46.176Z,29.40
2023-05-22T11:09:30.670Z,29.40
2023-05-22T11:12:25.964Z,29.40
2023-05-22T11:14:56.724Z,29.70
2023-05-22T11:17:26.726Z,29.70
2023-05-22T11:20:06.580Z,29.90
2023-05-22T11:22:36.840Z,30.20
2023-05-22T11:25:09.199Z,30.20
2023-05-22T11:27:43.923Z,30.30
2023-05-22T11:30:13.526Z,30.10
2023-05-22T11:32:45.488Z,30.30
2023-05-22T11:35:16.279Z,30.70
2023-05-22T11:37:44.704Z,30.60
2023-05-22T11:40:16.826Z,30.70
2023-05-22T11:42:46.423Z,30.70
2023-05-22T11:45:16.145Z,30.70
2023-05-22T11:47:44.978Z,30.90
2023-05-22T11:50:15.071Z,31.30
2023-05-22T11:52:49.324Z,31.30
2023-05-22T11:55:19.405Z,31.30
2023-05-22T11:57:49.256Z,31.40
2023-05-22T12:00:19.278Z,31.10
2023-05-22T12:02:48.894Z,31.30
2023-05-22T12:05:17.260Z,31.60
2023-05-22T12:07:45.605Z,31.90
2023-05-22T12:10:15.765Z,31.90
2023-05-22T12:13:06.998Z,31.70
2023-05-22T12:15:34.731Z,31.80
2023-05-22T12:18:02.920Z,32.10
2023-05-22T12:20:31.598Z,32.10
2023-05-22T12:23:04.512Z,32.10
2023-05-22T12:25:37.389Z,32.40
2023-05-22T12:28:12.161Z,32.60
2023-05-22T12:30:42.796Z,32.70
2023-05-22T12:33:18.142Z,32.90
2023-05-22T12:36:00.418Z,33.10
2023-05-22T12:38:49.215Z,32.70
2023-05-22T12:41:24.516Z,32.40
2023-05-22T12:43:53.627Z,32.80
2023-05-22T12:46:21.504Z,32.70
2023-05-22T12:48:49.297Z,32.70
2023-05-22T12:51:20.684Z,32.40
2023-05-22T12:53:49.731Z,33.00
2023-05-22T12:56:18.926Z,33.10
2023-05-22T12:58:47.842Z,33.50
2023-05-22T13:01:24.766Z,33.90
2023-05-22T13:03:55.892Z,33.90
2023-05-22T13:06:27.086Z,34.10
2023-05-22T13:08:58.753Z,34.30
2023-05-22T13:11:28.320Z,34.80
2023-05-22T13:13:56.600Z,35.00
2023-05-22T13:16:29.355Z,34.80
2023-05-22T13:18:57.641Z,34.50
2023-05-22T13:21:26.730Z,34.00
2023-05-22T13:23:58.363Z,34.50
2023-05-22T13:26:26.472Z,35.00
2023-05-22T13:28:54.550Z,35.30
2023-05-22T13:31:22.626Z,35.10
2023-05-22T13:33:52.969Z,35.00
2023-05-22T13:36:25.311Z,35.00
2023-05-22T13:38:54.208Z,35.30
2023-05-22T13:41:22.325Z,35.50
2023-05-22T13:43:51.966Z,35.60
2023-05-22T13:46:25.930Z,36.20
2023-05-22T13:48:55.608Z,36.40
2023-05-22T13:51:23.437Z,36.10
2023-05-22T13:53:51.725Z,35.70
2023-05-22T13:56:21.224Z,35.30
2023-05-22T13:58:49.565Z,35.40
2023-05-22T14:01:17.760Z,35.40
2023-05-22T14:03:45.919Z,35.60
2023-05-22T14:06:15.423Z,35.50
2023-05-22T14:08:46.036Z,35.80
2023-05-22T14:11:15.379Z,35.50
2023-05-22T14:13:43.548Z,34.90
2023-05-22T14:16:12.674Z,35.10
2023-05-22T14:18:40.866Z,35.30
2023-05-22T14:21:10.028Z,36.00
2023-05-22T14:23:44.021Z,35.60
2023-05-22T14:26:11.983Z,35.30
2023-05-22T14:28:41.399Z,35.30
2023-05-22T14:31:09.332Z,35.70
2023-05-22T14:33:40.553Z,35.80
2023-05-22T14:36:08.810Z,36.00
2023-05-22T14:38:36.600Z,35.50
2023-05-22T14:41:06.115Z,35.40
2023-05-22T14:43:37.054Z,35.30
2023-05-22T14:46:05.063Z,34.80
2023-05-22T14:48:33.178Z,34.30
2023-05-22T14:51:03.673Z,34.00
2023-05-22T14:53:31.749Z,33.50
2023-05-22T14:56:01.728Z,33.80
2023-05-22T14:58:32.843Z,33.70
2023-05-22T15:01:01.492Z,34.00
2023-05-22T15:03:31.519Z,34.00
2023-05-22T15:05:59.344Z,34.70
2023-05-22T15:08:28.429Z,34.80
2023-05-22T15:10:56.473Z,34.90
2023-05-22T15:13:25.825Z,34.80
2023-05-22T15:15:56.243Z,34.70
2023-05-22T15:18:25.924Z,34.70
2023-05-22T15:20:56.189Z,35.30
2023-05-22T15:23:27.467Z,35.60
2023-05-22T15:25:55.292Z,35.70
2023-05-22T15:28:25.097Z,36.10
2023-05-22T15:30:54.269Z,35.90
2023-05-22T15:33:25.976Z,35.60
2023-05-22T15:35:53.759Z,35.90
2023-05-22T15:38:23.096Z,36.80
2023-05-22T15:40:50.882Z,37.10
2023-05-22T15:43:20.147Z,37.10
2023-05-22T15:45:50.310Z,36.60
2023-05-22T15:48:20.184Z,36.70
2023-05-22T15:50:48.156Z,36.20
2023-05-22T15:53:16.270Z,35.20
2023-05-22T15:55:44.311Z,34.80
2023-05-22T15:58:12.544Z,33.80
2023-05-22T16:00:41.237Z,33.00
2023-05-22T16:03:12.372Z,33.00
2023-05-22T16:05:42.188Z,33.10
2023-05-22T16:08:11.056Z,32.80
2023-05-22T16:10:42.280Z,32.50
2023-05-22T16:13:11.424Z,32.20
2023-05-22T16:15:40.344Z,31.90
2023-05-22T16:18:09.001Z,32.20
2023-05-22T16:20:39.123Z,32.60
2023-05-22T16:23:08.495Z,32.80
2023-05-22T16:25:36.908Z,33.30
2023-05-22T16:28:07.380Z,33.30
2023-05-22T16:30:36.094Z,33.30
2023-05-22T16:33:03.946Z,33.50
2023-05-22T16:35:33.867Z,33.10
2023-05-22T16:38:03.813Z,33.50
2023-05-22T16:40:32.917Z,34.20
2023-05-22T16:43:01.422Z,34.40
2023-05-22T16:45:29.556Z,34.70
2023-05-22T16:48:00.668Z,34.70
2023-05-22T16:50:29.175Z,34.60
2023-05-22T16:52:57.346Z,34.70
2023-05-22T16:55:25.135Z,34.30
2023-05-22T16:57:54.580Z,34.00
2023-05-22T17:00:23.701Z,33.40
2023-05-22T17:02:52.607Z,32.90
2023-05-22T17:05:21.002Z,32.10
2023-05-22T17:07:51.792Z,31.90
2023-05-22T17:10:19.594Z,31.40
2023-05-22T17:12:47.468Z,31.40
2023-05-22T17:15:17.207Z,32.00
2023-05-22T17:17:45.644Z,32.00
2023-05-22T17:20:13.758Z,31.70
2023-05-22T17:22:41.621Z,31.10
2023-05-22T17:25:12.110Z,30.70
2023-05-22T17:27:41.440Z,30.70
2023-05-22T17:30:10.225Z,30.10
2023-05-22T17:32:39.329Z,29.90
2023-05-22T17:35:08.217Z,29.60
2023-05-22T17:37:37.560Z,29.00
2023-05-22T17:40:07.419Z,28.70
2023-05-22T17:42:35.505Z,28.20
2023-05-22T17:45:03.782Z,27.90
2023-05-22T17:47:34.262Z,27.60
2023-05-22T17:50:03.372Z,27.40
2023-05-22T17:52:33.995Z,27.10
2023-05-22T17:55:02.128Z,26.80
2023-05-22T17:57:32.028Z,26.60
2023-05-22T17:59:59.815Z,26.40
2023-05-22T18:02:29.232Z,26.00
2023-05-22T18:04:58.559Z,25.80
2023-05-22T18:07:27.835Z,25.70
2023-05-22T18:09:55.610Z,25.60
2023-05-22T18:12:31.691Z,25.40
2023-05-22T18:15:00.317Z,25.30
2023-05-22T18:17:28.169Z,25.10
2023-05-22T18:19:56.250Z,25.10
2023-05-22T18:22:25.962Z,24.90
2023-05-22T18:24:55.157Z,24.80
2023-05-22T18:27:24.999Z,24.60
2023-05-22T18:29:55.463Z,24.50
2023-05-22T18:32:23.784Z,24.20
2023-05-22T18:34:53.138Z,24.10
2023-05-22T18:37:21.710Z,24.00
2023-05-22T18:39:51.131Z,23.90
2023-05-22T18:42:21.423Z,23.80
2023-05-22T18:44:50.704Z,23.70
2023-05-22T18:47:22.430Z,23.50
2023-05-22T18:49:50.756Z,23.40
2023-05-22T18:52:19.484Z,23.30
2023-05-22T18:54:47.583Z,23.20
2023-05-22T18:57:15.652Z,23.10
2023-05-22T18:59:46.165Z,23.00
2023-05-22T19:02:16.360Z,22.90
2023-05-22T19:04:44.533Z,22.90
2023-05-22T19:07:12.632Z,22.70
2023-05-22T19:09:41.052Z,22.70
2023-05-22T19:12:10.022Z,22.60
2023-05-22T19:14:38.293Z,22.60
2023-05-22T19:17:07.881Z,22.60
2023-05-22T19:19:36.428Z,22.50
2023-05-22T19:22:04.692Z,22.50
2023-05-22T19:24:32.539Z,22.50
2023-05-22T19:27:00.582Z,22.50
2023-05-22T19:29:28.454Z,22.40
2023-05-22T19:31:58.063Z,22.30
2023-05-22T19:34:27.755Z,22.30
2023-05-22T19:37:00.737Z,22.20
2023-05-22T19:39:29.037Z,22.10
2023-05-22T19:41:57.334Z,22.10
2023-05-22T19:44:25.614Z,22.00
2023-05-22T19:46:57.273Z,22.00
2023-05-22T20:07:40.109Z,21.70
2023-05-22T20:10:13.432Z,21.90
2023-05-22T20:12:42.694Z,21.70
2023-05-22T20:15:15.771Z,21.70
2023-05-22T20:17:48.065Z,21.70
2023-05-22T20:20:17.906Z,21.60
2023-05-22T20:22:57.993Z,21.60
2023-05-22T20:25:27.639Z,21.60
2023-05-22T20:27:55.513Z,21.60
2023-05-22T20:30:23.682Z,21.60
2023-05-22T20:32:52.287Z,21.60
2023-05-22T20:35:22.167Z,21.50
2023-05-22T20:37:53.426Z,21.40
2023-05-22T20:40:21.933Z,21.40
2023-05-22T20:42:53.448Z,21.40
2023-05-22T20:45:21.493Z,21.30
2023-05-22T20:47:49.474Z,21.30
2023-05-22T20:50:18.595Z,21.30
2023-05-22T20:52:47.489Z,21.30
2023-05-22T20:55:17.081Z,21.30
2023-05-22T20:57:45.355Z,21.20
2023-05-22T21:00:16.754Z,21.20
2023-05-22T21:02:46.681Z,21.10
2023-05-22T21:05:16.473Z,21.10
2023-05-22T21:07:44.470Z,21.00
2023-05-22T21:10:12.659Z,20.90
2023-05-22T21:12:44.515Z,20.90
2023-05-22T21:15:13.106Z,20.90
2023-05-22T21:17:40.932Z,20.80
2023-05-22T21:20:14.945Z,20.80
2023-05-22T21:22:43.950Z,20.70
2023-05-22T21:25:12.100Z,20.70
2023-05-22T21:27:41.430Z,20.70
2023-05-22T21:30:15.987Z,20.60
2023-05-22T21:32:45.413Z,20.60
2023-05-22T21:35:13.978Z,20.60
2023-05-22T21:37:42.373Z,20.50
2023-05-22T21:40:11.082Z,20.40
2023-05-22T21:42:46.431Z,20.40
2023-05-22T21:45:17.941Z,20.40
2023-05-22T21:47:48.476Z,20.30
2023-05-22T21:50:18.998Z,20.20
2023-05-22T21:52:47.253Z,20.10
2023-05-22T21:55:15.337Z,20.00
2023-05-22T21:57:43.234Z,19.90
2023-05-22T22:00:15.292Z,19.90
2023-05-22T22:02:45.563Z,19.70
2023-05-22T22:05:13.523Z,19.70
2023-05-22T22:07:41.342Z,19.60
2023-05-22T22:10:09.925Z,19.50
2023-05-22T22:12:37.699Z,19.40
2023-05-22T22:15:08.939Z,19.40
2023-05-22T22:17:37.306Z,19.30
2023-05-22T22:20:08.093Z,19.30
2023-05-22T22:22:36.432Z,19.20
2023-05-22T22:25:05.773Z,19.10
2023-05-22T22:27:33.570Z,19.10
2023-05-22T22:30:02.095Z,19.10
2023-05-22T22:32:30.607Z,19.10
2023-05-22T22:34:59.770Z,19.00
2023-05-22T22:37:31.173Z,19.00
2023-05-22T22:39:59.059Z,19.00
2023-05-22T22:42:28.140Z,19.20
2023-05-22T22:44:58.410Z,19.20
2023-05-22T22:47:26.556Z,19.10
2023-05-22T22:49:57.036Z,19.00
2023-05-22T22:52:25.548Z,18.90
2023-05-22T22:55:02.900Z,18.90
2023-05-22T22:57:31.162Z,18.90
2023-05-22T22:59:59.236Z,18.80
2023-05-22T23:02:27.045Z,18.80
2023-05-22T23:04:55.169Z,18.70
2023-05-22T23:07:25.631Z,18.70
2023-05-22T23:09:58.579Z,18.80
2023-05-22T23:12:26.591Z,18.70
2023-05-22T23:14:56.977Z,18.50
2023-05-22T23:17:24.951Z,18.60
2023-05-22T23:19:53.746Z,18.50
2023-05-22T23:22:22.197Z,18.40
2023-05-22T23:24:51.368Z,18.40
2023-05-22T23:27:23.746Z,18.40
2023-05-22T23:29:52.245Z,18.30
2023-05-22T23:32:21.169Z,18.40
2023-05-22T23:34:49.652Z,18.40
2023-05-22T23:37:18.061Z,18.50
2023-05-22T23:39:46.428Z,18.30
2023-05-22T23:42:14.297Z,18.40
2023-05-22T23:44:43.889Z,18.30
2023-05-22T23:47:13.043Z,18.30
2023-05-22T23:49:41.178Z,18.30
2023-05-22T23:52:09.548Z,18.20
2023-05-22T23:54:38.342Z,18.20
2023-05-22T23:57:06.705Z,18.30
2023-05-22T23:59:34.822Z,18.30
